createdAt,value
2023-06-30T00:01:09.997Z,100183.53
2023-06-30T00:06:06.498Z,100180.84
2023-06-30T00:11:03.396Z,100190.09
2023-06-30T00:15:59.855Z,100185.88
2023-06-30T00:20:56.516Z,100187.56
2023-06-30T00:25:53.045Z,100188.91
2023-06-30T00:30:49.575Z,100184.19
2023-06-30T00:35:46.262Z,100179.97
2023-06-30T00:40:42.927Z,100168.03
2023-06-30T00:45:39.353Z,100158.78
2023-06-30T00:50:35.940Z,100155.44
2023-06-30T00:55:33.198Z,100149.31
2023-06-30T01:00:29.808Z,100135.72
2023-06-30T01:05:40.882Z,100124.44
2023-06-30T01:10:38.704Z,100109.31
2023-06-30T01:15:36.122Z,100100.94
2023-06-30T01:20:36.473Z,100096.38
2023-06-30T01:25:33.442Z,100093.19
2023-06-30T01:30:31.290Z,100093.53
2023-06-30T01:35:29.045Z,100083.25
2023-06-30T01:40:25.679Z,100087.78
2023-06-30T01:45:26.303Z,100089.81
2023-06-30T01:50:23.556Z,100086.28
2023-06-30T01:55:20.009Z,100093.84
2023-06-30T02:00:16.636Z,100098.19
2023-06-30T02:05:13.819Z,100101.03
2023-06-30T02:10:10.604Z,100100.34
2023-06-30T02:15:07.707Z,100110.41
2023-06-30T02:20:07.540Z,100101.50
2023-06-30T02:25:04.450Z,100098.09
2023-06-30T02:30:06.563Z,100084.97
2023-06-30T02:35:03.357Z,100078.53
2023-06-30T02:39:59.853Z,100069.50
2023-06-30T02:44:56.288Z,100083.59
2023-06-30T02:49:52.786Z,100076.56
2023-06-30T02:54:49.557Z,100066.66
2023-06-30T02:59:45.965Z,100078.88
2023-06-30T03:04:42.396Z,100086.25
2023-06-30T03:09:38.862Z,100098.97
2023-06-30T03:14:35.444Z,100112.53
2023-06-30T03:19:31.851Z,100112.69
2023-06-30T03:24:28.278Z,100107.34
2023-06-30T03:29:24.836Z,100115.00
2023-06-30T03:34:21.320Z,100100.25
2023-06-30T03:39:18.998Z,100095.94
2023-06-30T03:44:15.732Z,100098.03
2023-06-30T03:49:12.156Z,100112.72
2023-06-30T03:54:10.022Z,100126.44
2023-06-30T03:59:06.551Z,100110.19
2023-06-30T04:04:03.659Z,100116.16
2023-06-30T04:09:04.171Z,100115.56
2023-06-30T04:14:00.886Z,100111.63
2023-06-30T04:18:57.471Z,100101.13
2023-06-30T04:23:54.013Z,100113.75
2023-06-30T04:28:50.478Z,100112.53
2023-06-30T04:33:46.924Z,100111.06
2023-06-30T04:38:46.319Z,100122.09
2023-06-30T04:43:44.960Z,100121.78
2023-06-30T04:48:41.494Z,100134.81
2023-06-30T04:53:40.159Z,100137.75
2023-06-30T04:58:36.711Z,100146.25
2023-06-30T05:03:33.451Z,100165.59
2023-06-30T05:08:29.956Z,100171.13
2023-06-30T05:13:27.974Z,100183.50
2023-06-30T05:18:24.367Z,100187.22
2023-06-30T05:23:20.911Z,100193.44
2023-06-30T05:28:17.332Z,100199.66
2023-06-30T05:33:13.740Z,100199.78
2023-06-30T05:38:10.158Z,100206.97
2023-06-30T05:43:06.601Z,100226.97
2023-06-30T05:48:03.212Z,100226.69
2023-06-30T05:52:59.701Z,100236.81
2023-06-30T05:57:56.190Z,100232.34
2023-06-30T06:02:52.694Z,100245.25
2023-06-30T06:07:49.627Z,100242.38
2023-06-30T06:12:46.050Z,100234.00
2023-06-30T06:17:42.589Z,100221.72
2023-06-30T06:22:39.072Z,100199.44
2023-06-30T06:27:36.714Z,100193.09
2023-06-30T06:32:33.273Z,100176.75
2023-06-30T06:37:29.712Z,100151.66
2023-06-30T06:42:26.190Z,100138.09
2023-06-30T06:48:00.251Z,100133.97
2023-06-30T06:52:56.721Z,100132.72
2023-06-30T06:57:54.876Z,100116.75
2023-06-30T07:02:52.353Z,100115.13
2023-06-30T07:07:48.989Z,100101.53
2023-06-30T07:12:45.729Z,100091.16
2023-06-30T07:17:42.417Z,100095.16
2023-06-30T07:22:39.098Z,100090.75
2023-06-30T07:27:38.194Z,100092.16
2023-06-30T07:32:35.386Z,100084.38
2023-06-30T07:37:31.903Z,100094.25
2023-06-30T07:42:28.345Z,100098.78
2023-06-30T07:47:24.845Z,100105.34
2023-06-30T07:52:21.357Z,100111.75
2023-06-30T07:57:17.751Z,100108.75
2023-06-30T08:02:14.194Z,100102.97
2023-06-30T08:07:10.811Z,100114.56
2023-06-30T08:12:07.683Z,100125.47
2023-06-30T08:17:04.409Z,100124.50
2023-06-30T08:22:02.859Z,100117.59
2023-06-30T08:26:59.470Z,100121.91
2023-06-30T08:31:55.929Z,100123.97
2023-06-30T08:36:54.103Z,100126.53
2023-06-30T08:41:54.007Z,100122.00
2023-06-30T08:46:54.522Z,100113.13
2023-06-30T08:51:58.240Z,100112.91
2023-06-30T08:56:55.245Z,100111.91
2023-06-30T09:01:52.234Z,100110.69
2023-06-30T09:06:49.969Z,100113.06
2023-06-30T09:11:46.399Z,100111.22
2023-06-30T09:16:42.897Z,100117.59
2023-06-30T09:21:39.557Z,100119.69
2023-06-30T09:26:36.115Z,100113.91
2023-06-30T09:31:32.728Z,100112.91
2023-06-30T09:36:30.034Z,100108.03
2023-06-30T09:41:27.152Z,100111.56
2023-06-30T09:46:23.692Z,100108.03
2023-06-30T09:51:24.198Z,100105.94
2023-06-30T09:56:24.542Z,100095.78
2023-06-30T10:01:21.858Z,100107.19
2023-06-30T10:06:19.231Z,100111.97
2023-06-30T10:11:15.794Z,100113.81
2023-06-30T10:16:12.983Z,100099.78
2023-06-30T10:21:09.511Z,100084.97
2023-06-30T10:26:07.284Z,100099.09
2023-06-30T10:31:04.040Z,100100.16
2023-06-30T10:36:01.292Z,100093.06
2023-06-30T10:41:18.637Z,100092.31
2023-06-30T10:46:15.297Z,100092.47
2023-06-30T10:51:12.712Z,100078.81
2023-06-30T10:56:09.947Z,100086.09
2023-06-30T11:01:07.316Z,100087.09
2023-06-30T11:06:22.214Z,100074.66
2023-06-30T11:11:18.812Z,100072.16
2023-06-30T11:16:15.285Z,100061.56
2023-06-30T11:21:11.729Z,100054.09
2023-06-30T11:26:18.805Z,100055.88
2023-06-30T11:31:16.391Z,100053.56
2023-06-30T11:36:16.349Z,100043.41
2023-06-30T11:41:13.029Z,100047.28
2023-06-30T11:46:10.900Z,100041.03
2023-06-30T11:51:07.594Z,100030.84
2023-06-30T11:56:04.195Z,100031.28
2023-06-30T12:01:04.723Z,100033.88
2023-06-30T12:06:02.602Z,100031.91
2023-06-30T12:10:59.102Z,100028.63
2023-06-30T12:15:59.385Z,100034.69
2023-06-30T12:20:58.242Z,100037.28
2023-06-30T12:25:57.637Z,100022.72
2023-06-30T12:30:55.097Z,100016.53
2023-06-30T12:35:51.481Z,100022.06
2023-06-30T12:40:48.289Z,100016.50
2023-06-30T12:45:44.953Z,100002.66
2023-06-30T12:50:41.815Z,100001.19
2023-06-30T12:55:38.442Z,100019.22
2023-06-30T13:00:34.856Z,100002.91
2023-06-30T13:05:31.473Z,100009.00
2023-06-30T13:10:29.125Z,99997.84
2023-06-30T13:15:26.035Z,100002.81
2023-06-30T13:20:22.930Z,99998.44
2023-06-30T13:25:20.122Z,99999.78
2023-06-30T13:30:16.714Z,99980.66
2023-06-30T13:35:13.173Z,99992.28
2023-06-30T13:40:10.044Z,99980.91
2023-06-30T13:45:08.361Z,99969.94
2023-06-30T13:50:07.324Z,99974.06
2023-06-30T13:55:04.287Z,99969.38
2023-06-30T14:00:00.704Z,99972.13
2023-06-30T14:04:59.319Z,99970.19
2023-06-30T14:09:59.435Z,99961.84
2023-06-30T14:14:55.925Z,99967.53
2023-06-30T14:19:52.473Z,99958.00
2023-06-30T14:24:49.036Z,99961.41
2023-06-30T14:29:45.554Z,99944.38
2023-06-30T14:34:42.307Z,99945.00
2023-06-30T14:39:39.086Z,99933.91
2023-06-30T14:44:35.535Z,99936.78
2023-06-30T14:49:31.941Z,99941.41
2023-06-30T14:54:28.378Z,99936.78
2023-06-30T14:59:24.859Z,99932.94
2023-06-30T15:04:21.423Z,99931.16
2023-06-30T15:09:17.958Z,99933.44
2023-06-30T15:14:14.367Z,99925.16
2023-06-30T15:19:10.811Z,99929.22
2023-06-30T15:24:07.425Z,99916.75
2023-06-30T15:29:03.846Z,99915.44
2023-06-30T15:34:00.303Z,99921.16
2023-06-30T15:38:56.758Z,99911.84
2023-06-30T15:43:53.172Z,99910.13
2023-06-30T15:48:49.642Z,99900.06
2023-06-30T15:53:46.078Z,99898.59
2023-06-30T15:58:42.689Z,99900.94
2023-06-30T16:03:39.451Z,99889.00
2023-06-30T16:08:36.110Z,99891.94
2023-06-30T16:13:32.568Z,99885.56
2023-06-30T16:18:29.023Z,99884.44
2023-06-30T16:23:25.490Z,99892.03
2023-06-30T16:28:21.900Z,99878.94
2023-06-30T16:33:18.439Z,99870.06
2023-06-30T16:38:15.022Z,99858.22
2023-06-30T16:43:11.454Z,99859.34
2023-06-30T16:48:07.923Z,99859.84
2023-06-30T16:53:04.486Z,99867.16
2023-06-30T16:58:03.876Z,99860.75
2023-06-30T17:03:00.344Z,99850.19
2023-06-30T17:07:56.821Z,99853.34
2023-06-30T17:12:53.333Z,99853.50
2023-06-30T17:17:49.849Z,99857.94
2023-06-30T17:22:46.377Z,99854.50
2023-06-30T17:27:43.079Z,99847.78
2023-06-30T17:32:40.084Z,99848.50
2023-06-30T17:37:36.617Z,99843.44
2023-06-30T17:42:33.049Z,99846.78
2023-06-30T17:47:29.461Z,99838.97
2023-06-30T17:52:25.909Z,99843.56
2023-06-30T17:57:22.340Z,99839.53
2023-06-30T18:02:18.958Z,99836.09
2023-06-30T18:07:15.851Z,99834.41
2023-06-30T18:12:12.496Z,99833.88
2023-06-30T18:17:09.199Z,99826.41
2023-06-30T18:22:07.088Z,99825.03
2023-06-30T18:27:03.761Z,99822.88
2023-06-30T18:32:00.953Z,99820.84
2023-06-30T18:36:57.657Z,99820.63
2023-06-30T18:41:55.949Z,99822.81
2023-06-30T18:46:52.618Z,99828.63
2023-06-30T18:51:50.731Z,99827.31
2023-06-30T18:56:47.341Z,99823.31
2023-06-30T19:01:44.147Z,99816.78
2023-06-30T19:06:41.280Z,99820.22
2023-06-30T19:11:38.936Z,99829.00
2023-06-30T19:16:35.435Z,99825.88
2023-06-30T19:21:32.186Z,99826.94
2023-06-30T19:26:28.671Z,99835.47
2023-06-30T19:31:28.553Z,99841.69
2023-06-30T19:36:26.371Z,99840.19
2023-06-30T19:41:24.640Z,99848.19
2023-06-30T19:46:21.427Z,99845.94
2023-06-30T19:51:17.921Z,99836.69
2023-06-30T19:56:14.831Z,99839.84
2023-06-30T20:01:11.457Z,99842.25
2023-06-30T20:06:08.015Z,99837.13
2023-06-30T20:11:04.438Z,99832.19
2023-06-30T20:16:00.850Z,99844.66
2023-06-30T20:20:57.728Z,99835.16
2023-06-30T20:25:54.178Z,99835.81
2023-06-30T20:30:50.954Z,99824.44
2023-06-30T20:35:47.791Z,99832.09
2023-06-30T20:40:44.310Z,99827.44
2023-06-30T20:45:41.910Z,99824.75
2023-06-30T20:50:38.313Z,99831.25
2023-06-30T20:55:34.826Z,99813.31
2023-06-30T21:00:31.418Z,99819.47
2023-06-30T21:05:27.851Z,99813.56
2023-06-30T21:10:24.319Z,99809.25
2023-06-30T21:15:20.762Z,99809.53
2023-06-30T21:20:18.051Z,99809.53
2023-06-30T21:25:14.513Z,99815.84
2023-06-30T21:30:11.529Z,99801.34
2023-06-30T21:35:08.358Z,99805.63
2023-06-30T21:40:05.329Z,99801.53
2023-06-30T21:45:01.998Z,99793.38
2023-06-30T21:49:58.506Z,99789.03
2023-06-30T21:54:55.061Z,99782.00
2023-06-30T21:59:51.486Z,99770.50
2023-06-30T22:04:47.965Z,99773.97
2023-06-30T22:09:44.440Z,99763.47
2023-06-30T22:14:41.032Z,99759.09
2023-06-30T22:19:38.302Z,99757.34
2023-06-30T22:24:34.910Z,99744.38
2023-06-30T22:29:31.396Z,99744.91
2023-06-30T22:34:28.078Z,99745.22
2023-06-30T22:39:24.526Z,99746.44
2023-06-30T22:44:21.036Z,99743.47
2023-06-30T22:49:17.425Z,99732.19
2023-06-30T22:54:13.908Z,99731.19
2023-06-30T22:59:10.329Z,99724.75
2023-06-30T23:04:06.915Z,99720.28
2023-06-30T23:09:07.958Z,99720.00
2023-06-30T23:14:05.145Z,99711.38
2023-06-30T23:19:01.649Z,99705.41
2023-06-30T23:23:58.220Z,99702.13
2023-06-30T23:28:56.150Z,99697.28
2023-06-30T23:33:53.335Z,99709.69
2023-06-30T23:38:50.865Z,99691.09
2023-06-30T23:43:48.048Z,99687.75
2023-06-30T23:48:45.493Z,99686.22
2023-06-30T23:53:41.952Z,99682.66
2023-06-30T23:58:38.362Z,99678.94
